createdAt,value
2022-09-11T00:00:21.587Z,99866.91
2022-09-11T00:02:49.407Z,99869.94
2022-09-11T00:05:17.081Z,99862.34
2022-09-11T00:07:44.699Z,99867.19
2022-09-11T00:10:12.326Z,99862.28
2022-09-11T00:12:39.891Z,99868.94
2022-09-11T00:15:07.684Z,99863.91
2022-09-11T00:17:35.597Z,99868.72
2022-09-11T00:20:03.258Z,99885.16
2022-09-11T00:22:31.041Z,99870.19
2022-09-11T00:24:59.540Z,99880.94
2022-09-11T00:27:27.331Z,99879.25
2022-09-11T00:29:54.980Z,99870.34
2022-09-11T00:32:22.894Z,99865.13
2022-09-11T00:34:50.436Z,99871.66
2022-09-11T00:37:18.131Z,99870.81
2022-09-11T00:39:46.458Z,99869.38
2022-09-11T00:42:15.114Z,99864.34
2022-09-11T00:44:43.241Z,99875.22
2022-09-11T00:47:11.024Z,99874.53
2022-09-11T00:49:38.683Z,99883.56
2022-09-11T00:52:08.653Z,99878.34
2022-09-11T00:54:36.353Z,99879.50
2022-09-11T00:57:04.326Z,99881.50
2022-09-11T00:59:32.026Z,99879.97
2022-09-11T01:02:06.577Z,99883.63
2022-09-11T01:04:34.719Z,99895.50
2022-09-11T01:07:02.368Z,99892.16
2022-09-11T01:09:29.993Z,99887.91
2022-09-11T01:11:57.909Z,99888.09
2022-09-11T01:14:25.479Z,99889.91
2022-09-11T01:16:53.407Z,99898.09
2022-09-11T01:19:20.975Z,99892.91
2022-09-11T01:21:52.490Z,99899.25
2022-09-11T01:24:20.072Z,99898.56
2022-09-11T01:26:47.649Z,99900.41
2022-09-11T01:29:16.176Z,99903.25
2022-09-11T01:31:45.997Z,99900.69
2022-09-11T01:34:13.719Z,99910.59
2022-09-11T01:36:41.460Z,99910.59
2022-09-11T01:39:09.836Z,99911.16
2022-09-11T01:41:37.408Z,99915.19
2022-09-11T01:44:05.081Z,99926.47
2022-09-11T01:46:34.886Z,99922.50
2022-09-11T01:49:02.524Z,99917.50
2022-09-11T01:51:30.076Z,99918.91
2022-09-11T01:53:59.488Z,99927.31
2022-09-11T01:56:27.159Z,99927.72
2022-09-11T01:58:56.213Z,99930.69
2022-09-11T02:01:23.899Z,99929.25
2022-09-11T02:03:52.511Z,99928.91
2022-09-11T02:06:20.117Z,99939.38
2022-09-11T02:08:49.310Z,99934.50
2022-09-11T02:11:16.965Z,99929.69
2022-09-11T02:13:46.989Z,99945.50
2022-09-11T02:16:14.720Z,99942.50
2022-09-11T02:18:42.396Z,99939.53
2022-09-11T02:21:10.409Z,99947.25
2022-09-11T02:23:40.030Z,99943.28
2022-09-11T02:26:07.695Z,99945.63
2022-09-11T02:28:35.523Z,99946.19
2022-09-11T02:31:03.639Z,99933.59
2022-09-11T02:33:32.637Z,99949.25
2022-09-11T02:36:00.296Z,99946.09
2022-09-11T02:38:27.935Z,99943.09
2022-09-11T02:40:55.597Z,99945.47
2022-09-11T02:43:23.884Z,99943.16
2022-09-11T02:45:54.476Z,99949.06
2022-09-11T02:48:22.288Z,99945.91
2022-09-11T02:50:49.868Z,99950.97
2022-09-11T02:53:17.783Z,99950.66
2022-09-11T02:55:45.361Z,99955.69
2022-09-11T02:58:13.350Z,99953.72
2022-09-11T03:00:41.131Z,99949.03
2022-09-11T03:03:10.141Z,99957.75
2022-09-11T03:05:40.389Z,99962.13
2022-09-11T03:08:08.390Z,99965.53
2022-09-11T03:10:35.961Z,99967.22
2022-09-11T03:13:03.942Z,99969.56
2022-09-11T03:15:31.670Z,99970.25
2022-09-11T03:17:59.293Z,99972.66
2022-09-11T03:20:27.043Z,99971.50
2022-09-11T03:22:55.205Z,99968.47
2022-09-11T03:25:23.842Z,99969.19
2022-09-11T03:27:51.758Z,99962.81
2022-09-11T03:30:19.355Z,99970.03
2022-09-11T03:32:48.248Z,99971.88
2022-09-11T03:35:16.763Z,99970.03
2022-09-11T03:37:44.497Z,99975.28
2022-09-11T03:40:12.354Z,99978.78
2022-09-11T03:42:41.402Z,99982.47
2022-09-11T03:45:09.073Z,99977.09
2022-09-11T03:47:37.538Z,99985.16
2022-09-11T03:50:05.234Z,99984.31
2022-09-11T03:52:33.160Z,99980.78
2022-09-11T03:55:01.188Z,99987.84
2022-09-11T03:57:28.819Z,99984.16
2022-09-11T03:59:57.151Z,99985.84
2022-09-11T04:02:25.101Z,99982.16
2022-09-11T04:04:52.759Z,99986.56
2022-09-11T04:07:20.964Z,99988.53
2022-09-11T04:09:48.581Z,99991.94
2022-09-11T04:12:17.497Z,99996.31
2022-09-11T04:14:45.193Z,99999.00
2022-09-11T04:17:12.777Z,99997.31
2022-09-11T04:19:40.511Z,99992.06
2022-09-11T04:22:10.544Z,100000.97
2022-09-11T04:24:38.133Z,100002.69
2022-09-11T04:27:05.820Z,100007.06
2022-09-11T04:29:33.869Z,100000.66
2022-09-11T04:32:02.283Z,100008.75
2022-09-11T04:34:29.979Z,100009.75
2022-09-11T04:36:57.699Z,100012.56
2022-09-11T04:39:25.339Z,100007.34
2022-09-11T04:41:55.519Z,100013.72
2022-09-11T04:44:24.352Z,100012.91
2022-09-11T04:46:51.939Z,100016.56
2022-09-11T04:49:19.614Z,100020.25
2022-09-11T04:51:47.284Z,100022.25
2022-09-11T04:54:14.866Z,100025.06
2022-09-11T04:56:42.541Z,100017.34
2022-09-11T04:59:13.471Z,100024.72
2022-09-11T05:01:41.101Z,100030.25
2022-09-11T05:04:09.696Z,100024.00
2022-09-11T05:06:38.073Z,100023.19
2022-09-11T05:09:06.091Z,100027.69
2022-09-11T05:11:33.742Z,100037.44
2022-09-11T05:14:01.677Z,100027.41
2022-09-11T05:16:29.631Z,100024.53
2022-09-11T05:18:57.307Z,100028.09
2022-09-11T05:21:25.126Z,100024.53
2022-09-11T05:23:52.771Z,100027.06
2022-09-11T05:26:20.535Z,100025.53
2022-09-11T05:28:48.140Z,100035.28
2022-09-11T05:31:15.868Z,100036.16
2022-09-11T05:33:44.526Z,100032.44
2022-09-11T05:36:12.281Z,100041.19
2022-09-11T05:38:40.276Z,100040.38
2022-09-11T05:41:07.949Z,100046.56
2022-09-11T05:43:35.988Z,100045.75
2022-09-11T05:46:03.683Z,100050.25
2022-09-11T05:48:31.361Z,100053.81
2022-09-11T05:50:59.749Z,100062.69
2022-09-11T05:53:27.790Z,100061.00
2022-09-11T05:55:55.417Z,100063.72
2022-09-11T05:58:22.982Z,100062.03
2022-09-11T06:00:50.698Z,100070.75
2022-09-11T06:03:18.968Z,100072.34
2022-09-11T06:05:46.663Z,100079.25
2022-09-11T06:08:14.374Z,100088.72
2022-09-11T06:10:42.017Z,100088.38
2022-09-11T06:13:09.945Z,100095.13
2022-09-11T06:15:46.673Z,100093.81
2022-09-11T06:18:14.775Z,100091.53
2022-09-11T06:20:42.668Z,100100.13
2022-09-11T06:23:10.651Z,100097.25
2022-09-11T06:25:38.438Z,100101.63
2022-09-11T06:28:06.185Z,100101.34
2022-09-11T06:30:33.778Z,100097.31
2022-09-11T06:33:01.802Z,100093.66
2022-09-11T06:35:30.186Z,100098.03
2022-09-11T06:37:57.770Z,100102.41
2022-09-11T06:40:25.543Z,100110.47
2022-09-11T06:42:54.375Z,100102.53
2022-09-11T06:45:22.141Z,100110.75
2022-09-11T06:47:49.714Z,100105.09
2022-09-11T06:50:17.416Z,100110.53
2022-09-11T06:52:46.065Z,100109.19
2022-09-11T06:55:14.700Z,100113.94
2022-09-11T06:57:42.710Z,100120.72
2022-09-11T07:00:10.445Z,100128.59
2022-09-11T07:02:38.876Z,100124.75
2022-09-11T07:05:06.530Z,100123.28
2022-09-11T07:07:34.827Z,100121.09
2022-09-11T07:10:05.277Z,100125.19
2022-09-11T07:12:33.280Z,100126.88
2022-09-11T07:15:00.958Z,100125.88
2022-09-11T07:17:28.593Z,100129.25
2022-09-11T07:19:56.323Z,100123.03
2022-09-11T07:22:24.223Z,100125.38
2022-09-11T07:24:55.360Z,100124.06
2022-09-11T07:27:23.075Z,100130.28
2022-09-11T07:29:50.788Z,100128.59
2022-09-11T07:32:18.709Z,100128.59
2022-09-11T07:34:47.707Z,100135.00
2022-09-11T07:37:15.520Z,100134.84
2022-09-11T07:39:43.205Z,100141.28
2022-09-11T07:42:12.243Z,100132.75
2022-09-11T07:44:39.857Z,100137.81
2022-09-11T07:47:07.555Z,100134.63
2022-09-11T07:49:35.135Z,100146.28
2022-09-11T07:52:03.843Z,100143.31
2022-09-11T07:54:31.513Z,100146.88
2022-09-11T07:56:59.230Z,100147.44
2022-09-11T07:59:28.065Z,100149.50
2022-09-11T08:01:56.754Z,100148.34
2022-09-11T08:04:24.776Z,100147.19
2022-09-11T08:06:52.420Z,100149.88
2022-09-11T08:09:20.532Z,100155.09
2022-09-11T08:11:48.907Z,100153.28
2022-09-11T08:14:17.793Z,100161.09
2022-09-11T08:16:45.565Z,100162.44
2022-09-11T08:19:13.243Z,100157.41
2022-09-11T08:21:42.198Z,100161.78
2022-09-11T08:24:09.831Z,100161.13
2022-09-11T08:26:37.463Z,100162.97
2022-09-11T08:29:05.335Z,100165.34
2022-09-11T08:31:33.892Z,100168.53
2022-09-11T08:34:01.869Z,100174.09
2022-09-11T08:36:29.815Z,100176.50
2022-09-11T08:38:57.421Z,100181.84
2022-09-11T08:41:25.101Z,100186.75
2022-09-11T08:43:53.157Z,100183.75
2022-09-11T08:46:20.884Z,100187.63
2022-09-11T08:48:48.684Z,100191.47
2022-09-11T08:51:16.343Z,100190.31
2022-09-11T08:53:45.852Z,100188.44
2022-09-11T08:56:13.715Z,100193.69
2022-09-11T08:58:41.325Z,100199.75
2022-09-11T09:01:09.086Z,100195.88
2022-09-11T09:03:37.053Z,100205.66
2022-09-11T09:06:04.702Z,100207.00
2022-09-11T09:08:35.442Z,100212.25
2022-09-11T09:11:03.141Z,100217.59
2022-09-11T09:13:31.603Z,100218.81
2022-09-11T09:15:59.231Z,100209.50
2022-09-11T09:18:26.937Z,100215.94
2022-09-11T09:20:54.548Z,100200.75
2022-09-11T09:23:22.551Z,100213.28
2022-09-11T09:25:52.879Z,100211.56
2022-09-11T09:28:20.562Z,100208.69
2022-09-11T09:30:48.306Z,100222.44
2022-09-11T09:33:16.531Z,100220.84
2022-09-11T09:35:44.365Z,100222.03
2022-09-11T09:38:11.959Z,100227.63
2022-09-11T09:40:39.588Z,100225.97
2022-09-11T09:43:07.558Z,100223.25
2022-09-11T09:45:37.733Z,100220.69
2022-09-11T09:48:05.970Z,100221.63
2022-09-11T09:50:33.725Z,100218.47
2022-09-11T09:53:01.477Z,100219.81
2022-09-11T09:55:29.167Z,100222.88
2022-09-11T09:57:56.997Z,100216.50
2022-09-11T10:00:24.721Z,100228.78
2022-09-11T10:02:55.241Z,100223.75
2022-09-11T10:05:22.871Z,100229.81
2022-09-11T10:07:50.564Z,100229.38
2022-09-11T10:10:18.412Z,100219.22
2022-09-11T10:12:46.050Z,100217.59
2022-09-11T10:15:13.747Z,100228.13
2022-09-11T10:17:41.352Z,100216.84
2022-09-11T10:20:09.161Z,100220.78
2022-09-11T10:22:36.807Z,100223.22
2022-09-11T10:25:04.581Z,100213.94
2022-09-11T10:27:32.854Z,100206.78
2022-09-11T10:30:00.762Z,100217.63
2022-09-11T10:32:29.123Z,100212.72
2022-09-11T10:34:56.860Z,100217.50
2022-09-11T10:37:24.832Z,100221.09
2022-09-11T10:39:52.604Z,100226.75
2022-09-11T10:42:23.256Z,100221.09
2022-09-11T10:44:50.923Z,100223.97
2022-09-11T10:47:18.698Z,100225.63
2022-09-11T10:49:47.358Z,100227.41
2022-09-11T10:52:15.313Z,100226.94
2022-09-11T10:54:44.681Z,100223.72
2022-09-11T10:57:13.483Z,100231.09
2022-09-11T10:59:41.662Z,100244.47
2022-09-11T11:02:10.579Z,100237.47
2022-09-11T11:04:38.304Z,100231.19
2022-09-11T11:07:05.947Z,100231.41
2022-09-11T11:09:33.678Z,100239.06
2022-09-11T11:12:01.654Z,100232.22
2022-09-11T11:14:29.488Z,100231.44
2022-09-11T11:16:57.153Z,100239.09
2022-09-11T11:19:24.883Z,100236.38
2022-09-11T11:21:52.590Z,100238.25
2022-09-11T11:24:21.649Z,100227.28
2022-09-11T11:26:49.393Z,100230.97
2022-09-11T11:29:17.098Z,100224.22
2022-09-11T11:31:44.859Z,100232.06
2022-09-11T11:34:12.850Z,100241.59
2022-09-11T11:36:40.629Z,100232.44
2022-09-11T11:39:08.934Z,100236.63
2022-09-11T11:41:36.698Z,100232.25
2022-09-11T11:44:04.657Z,100231.22
2022-09-11T11:46:33.724Z,100237.31
2022-09-11T11:49:01.308Z,100233.34
2022-09-11T11:51:29.028Z,100234.84
2022-09-11T11:53:57.044Z,100236.72
2022-09-11T11:56:24.740Z,100233.97
2022-09-11T11:58:52.455Z,100238.03
2022-09-11T12:01:20.450Z,100246.25
2022-09-11T12:03:48.601Z,100249.41
2022-09-11T12:06:16.443Z,100249.41
2022-09-11T12:08:44.863Z,100256.31
2022-09-11T12:11:13.050Z,100252.34
2022-09-11T12:13:41.049Z,100260.56
2022-09-11T12:16:11.373Z,100263.06
2022-09-11T12:18:39.286Z,100261.56
2022-09-11T12:21:07.299Z,100268.47
2022-09-11T12:23:35.005Z,100262.13
2022-09-11T12:26:02.756Z,100268.66
2022-09-11T12:28:30.498Z,100260.16
2022-09-11T12:30:58.302Z,100262.78
2022-09-11T12:33:26.292Z,100266.59
2022-09-11T12:35:54.194Z,100262.00
2022-09-11T12:38:21.932Z,100265.44
2022-09-11T12:40:49.789Z,100261.66
2022-09-11T12:43:18.996Z,100259.13
2022-09-11T12:45:48.561Z,100267.06
2022-09-11T12:48:16.704Z,100265.50
2022-09-11T12:50:44.391Z,100263.63
2022-09-11T12:53:13.278Z,100253.97
2022-09-11T12:55:41.037Z,100254.25
2022-09-11T12:58:08.656Z,100252.31
2022-09-11T13:00:36.451Z,100259.94
2022-09-11T13:03:04.446Z,100259.03
2022-09-11T13:05:34.767Z,100252.41
2022-09-11T13:08:04.450Z,100255.75
2022-09-11T13:10:33.591Z,100261.28
2022-09-11T13:13:02.772Z,100255.59
2022-09-11T13:15:30.522Z,100254.28
2022-09-11T13:17:58.207Z,100256.69
2022-09-11T13:20:25.800Z,100246.31
2022-09-11T13:23:04.083Z,100234.81
2022-09-11T13:25:32.180Z,100239.03
2022-09-11T13:27:59.800Z,100235.28
2022-09-11T13:30:27.750Z,100238.19
2022-09-11T13:33:14.506Z,100238.56
2022-09-11T13:35:42.199Z,100238.53
2022-09-11T13:38:10.203Z,100236.84
2022-09-11T13:40:37.900Z,100228.94
2022-09-11T13:43:05.661Z,100216.06
2022-09-11T13:48:56.496Z,100210.59
2022-09-11T13:51:24.246Z,100213.63
2022-09-11T13:53:51.996Z,100209.97
2022-09-11T13:56:21.155Z,100210.00
2022-09-11T13:58:53.336Z,100204.66
2022-09-11T14:01:21.480Z,100200.81
2022-09-11T14:03:58.738Z,100194.09
2022-09-11T14:06:26.479Z,100198.25
2022-09-11T14:08:54.525Z,100198.63
2022-09-11T14:11:22.293Z,100189.06
2022-09-11T14:13:50.063Z,100185.88
2022-09-11T14:16:17.935Z,100184.28
2022-09-11T14:18:46.411Z,100185.22
2022-09-11T14:21:14.521Z,100186.09
2022-09-11T14:23:43.173Z,100184.44
2022-09-11T14:26:10.969Z,100177.19
2022-09-11T14:28:38.649Z,100171.13
2022-09-11T14:31:06.911Z,100177.00
2022-09-11T14:33:47.432Z,100167.41
2022-09-11T14:36:22.109Z,100162.75
2022-09-11T14:38:50.340Z,100158.50
2022-09-11T14:41:17.897Z,100161.31
2022-09-11T14:43:48.914Z,100164.56
2022-09-11T14:46:17.119Z,100163.72
2022-09-11T14:48:45.036Z,100165.41
2022-09-11T14:51:13.688Z,100160.81
2022-09-11T14:53:43.649Z,100152.47
2022-09-11T14:56:11.726Z,100155.69
2022-09-11T14:58:39.390Z,100161.59
2022-09-11T15:01:07.323Z,100162.25
2022-09-11T15:03:35.098Z,100150.06
2022-09-11T15:06:02.844Z,100162.47
2022-09-11T15:08:30.442Z,100146.31
2022-09-11T15:10:57.963Z,100143.88
2022-09-11T15:13:26.110Z,100149.38
2022-09-11T15:15:53.758Z,100143.53
2022-09-11T15:18:22.053Z,100142.41
2022-09-11T15:20:49.670Z,100138.59
2022-09-11T15:23:17.726Z,100141.47
2022-09-11T15:25:45.557Z,100131.34
2022-09-11T15:28:13.269Z,100126.31
2022-09-11T15:30:41.736Z,100122.50
2022-09-11T15:33:09.271Z,100127.06
2022-09-11T15:35:36.935Z,100118.94
2022-09-11T15:38:05.667Z,100116.31
2022-09-11T15:40:33.763Z,100108.88
2022-09-11T15:43:01.351Z,100112.28
2022-09-11T15:45:28.966Z,100109.72
2022-09-11T15:47:56.536Z,100107.25
2022-09-11T15:50:28.853Z,100108.22
2022-09-11T15:52:56.451Z,100108.56
2022-09-11T15:55:25.281Z,100102.72
2022-09-11T15:57:52.966Z,100095.16
2022-09-11T16:00:20.502Z,100090.53
2022-09-11T16:02:49.558Z,100091.69
2022-09-11T16:05:17.116Z,100089.34
2022-09-11T16:07:44.718Z,100100.31
2022-09-11T16:10:12.271Z,100099.59
2022-09-11T16:12:39.877Z,100104.47
2022-09-11T16:15:07.745Z,100101.88
2022-09-11T16:17:35.379Z,100109.44
2022-09-11T16:20:03.060Z,100113.16
2022-09-11T16:22:32.017Z,100112.47
2022-09-11T16:25:00.361Z,100119.31
2022-09-11T16:27:28.298Z,100109.41
2022-09-11T16:32:43.694Z,100102.44
2022-09-11T16:35:13.449Z,100107.25
2022-09-11T16:37:41.589Z,100109.72
2022-09-11T16:40:09.773Z,100104.28
2022-09-11T16:42:37.611Z,100105.13
2022-09-11T16:45:05.521Z,100111.19
2022-09-11T16:47:33.569Z,100109.94
2022-09-11T16:50:07.330Z,100113.78
2022-09-11T16:52:35.904Z,100106.75
2022-09-11T16:55:03.504Z,100095.38
2022-09-11T16:57:31.071Z,100092.50
2022-09-11T16:59:58.837Z,100099.00
2022-09-11T17:02:26.946Z,100100.94
2022-09-11T17:04:54.542Z,100109.13
2022-09-11T17:07:22.198Z,100098.38
2022-09-11T17:09:49.776Z,100090.47
2022-09-11T17:12:17.796Z,100090.53
2022-09-11T17:14:45.718Z,100092.50
2022-09-11T17:17:13.554Z,100097.94
2022-09-11T17:19:41.136Z,100097.81
2022-09-11T17:22:10.707Z,100097.00
2022-09-11T17:24:38.911Z,100092.63
2022-09-11T17:27:06.579Z,100096.41
2022-09-11T17:29:35.239Z,100100.16
2022-09-11T17:32:24.124Z,100097.00
2022-09-11T17:34:51.161Z,100094.03
2022-09-11T17:37:18.787Z,100088.16
2022-09-11T17:39:46.391Z,100090.22
2022-09-11T17:42:13.975Z,100089.56
2022-09-11T17:44:42.470Z,100097.69
2022-09-11T17:47:10.000Z,100091.59
2022-09-11T17:49:38.800Z,100104.28
2022-09-11T17:52:07.170Z,100093.50
2022-09-11T17:54:34.888Z,100104.31
2022-09-11T17:57:02.468Z,100103.63
2022-09-11T17:59:30.099Z,100111.56
2022-09-11T18:01:59.162Z,100115.28
2022-09-11T18:04:27.133Z,100110.84
2022-09-11T18:06:55.203Z,100117.94
2022-09-11T18:09:22.825Z,100113.34
2022-09-11T18:11:51.063Z,100123.25
2022-09-11T18:14:18.629Z,100127.63
2022-09-11T18:16:47.340Z,100124.91
2022-09-11T18:19:15.002Z,100118.50
2022-09-11T18:21:45.558Z,100118.47
2022-09-11T18:24:19.776Z,100121.13
2022-09-11T18:26:47.663Z,100120.09
2022-09-11T18:29:16.732Z,100124.28
2022-09-11T18:31:44.342Z,100121.41
2022-09-11T18:34:11.971Z,100121.19
2022-09-11T18:36:39.532Z,100128.09
2022-09-11T18:39:07.255Z,100123.34
2022-09-11T18:41:35.063Z,100129.34
2022-09-11T18:44:04.116Z,100128.31
2022-09-11T18:46:32.183Z,100128.41
2022-09-11T18:49:00.308Z,100125.81
2022-09-11T18:51:28.590Z,100124.94
2022-09-11T18:53:56.651Z,100122.16
2022-09-11T18:56:24.171Z,100122.28
2022-09-11T18:58:52.462Z,100126.59
2022-09-11T19:01:20.503Z,100130.06
2022-09-11T19:03:48.289Z,100127.00
2022-09-11T19:06:15.803Z,100135.56
2022-09-11T19:08:43.392Z,100123.41
2022-09-11T19:11:10.977Z,100125.56
2022-09-11T19:13:38.733Z,100122.34
2022-09-11T19:16:07.249Z,100121.78
2022-09-11T19:18:34.772Z,100122.13
2022-09-11T19:21:03.896Z,100126.09
2022-09-11T19:23:31.620Z,100111.41
2022-09-11T19:25:59.441Z,100114.03
2022-09-11T19:28:28.635Z,100118.31
2022-09-11T19:30:57.249Z,100119.91
2022-09-11T19:33:24.866Z,100116.16
2022-09-11T19:35:52.421Z,100120.28
2022-09-11T19:38:21.238Z,100119.91
2022-09-11T19:40:48.982Z,100126.59
2022-09-11T19:43:17.536Z,100123.34
2022-09-11T19:45:45.938Z,100132.69
2022-09-11T19:48:13.464Z,100125.09
2022-09-11T19:50:41.025Z,100127.22
2022-09-11T19:53:08.616Z,100129.50
2022-09-11T19:55:36.416Z,100133.19
2022-09-11T19:58:04.770Z,100128.13
2022-09-11T20:00:32.754Z,100129.28
2022-09-11T20:03:00.486Z,100132.97
2022-09-11T20:05:28.033Z,100128.72
2022-09-11T20:07:56.116Z,100125.50
2022-09-11T20:10:24.410Z,100122.41
2022-09-11T20:12:51.981Z,100131.75
2022-09-11T20:15:19.510Z,100120.47
2022-09-11T20:17:47.180Z,100126.16
2022-09-11T20:20:14.834Z,100134.66
2022-09-11T20:22:42.894Z,100136.03
2022-09-11T20:25:10.348Z,100134.63
2022-09-11T20:27:38.098Z,100132.22
2022-09-11T20:30:05.937Z,100135.22
2022-09-11T20:32:33.495Z,100133.53
2022-09-11T20:35:00.987Z,100146.25
2022-09-11T20:37:28.899Z,100139.91
2022-09-11T20:39:56.486Z,100133.81
2022-09-11T20:42:24.018Z,100128.75
2022-09-11T20:44:52.424Z,100131.72
2022-09-11T20:47:19.936Z,100130.31
2022-09-11T20:49:47.427Z,100131.88
2022-09-11T20:52:14.943Z,100130.50
2022-09-11T20:54:42.459Z,100120.75
2022-09-11T20:57:10.217Z,100129.22
2022-09-11T20:59:37.871Z,100129.66
2022-09-11T21:02:05.436Z,100125.59
2022-09-11T21:04:33.032Z,100114.44
2022-09-11T21:07:00.730Z,100122.06
2022-09-11T21:09:28.249Z,100125.34
2022-09-11T21:11:55.711Z,100119.41
2022-09-11T21:14:23.225Z,100121.53
2022-09-11T21:16:50.721Z,100118.44
2022-09-11T21:19:18.410Z,100118.72
2022-09-11T21:21:46.151Z,100117.16
2022-09-11T21:24:13.659Z,100116.31
2022-09-11T21:26:41.219Z,100114.50
2022-09-11T21:29:09.051Z,100119.28
2022-09-11T21:31:36.675Z,100112.38
2022-09-11T21:34:04.210Z,100111.81
2022-09-11T21:36:32.417Z,100115.47
2022-09-11T21:38:59.989Z,100115.63
2022-09-11T21:41:27.454Z,100111.38
2022-09-11T21:43:54.977Z,100109.69
2022-09-11T21:46:22.482Z,100112.66
2022-09-11T21:48:49.991Z,100117.31
2022-09-11T21:51:17.789Z,100106.88
2022-09-11T21:53:45.374Z,100112.22
2022-09-11T21:56:12.938Z,100115.91
2022-09-11T21:58:40.472Z,100116.88
2022-09-11T22:01:08.662Z,100112.66
2022-09-11T22:03:36.241Z,100111.06
2022-09-11T22:06:03.786Z,100113.03
2022-09-11T22:08:31.404Z,100109.66
2022-09-11T22:10:58.882Z,100105.31
2022-09-11T22:13:26.700Z,100104.56
2022-09-11T22:15:54.219Z,100106.56
2022-09-11T22:18:21.725Z,100107.69
2022-09-11T22:20:49.239Z,100103.59
2022-09-11T22:23:16.914Z,100105.97
2022-09-11T22:25:44.389Z,100109.94
2022-09-11T22:28:12.128Z,100111.16
2022-09-11T22:30:39.589Z,100107.09
2022-09-11T22:33:07.083Z,100108.78
2022-09-11T22:35:34.966Z,100107.34
2022-09-11T22:38:02.460Z,100105.09
2022-09-11T22:40:29.962Z,100101.84
2022-09-11T22:42:57.466Z,100094.25
2022-09-11T22:45:24.972Z,100092.69
2022-09-11T22:47:52.464Z,100100.00
2022-09-11T22:50:19.971Z,100094.06
2022-09-11T22:52:48.496Z,100093.25
2022-09-11T22:55:16.314Z,100093.38
2022-09-11T22:57:43.841Z,100093.50
2022-09-11T23:00:11.603Z,100091.81
2022-09-11T23:02:39.072Z,100088.44
2022-09-11T23:05:24.193Z,100093.78
2022-09-11T23:07:51.752Z,100098.41
2022-09-11T23:10:23.748Z,100097.72
2022-09-11T23:12:51.440Z,100099.56
2022-09-11T23:15:19.351Z,100093.47
2022-09-11T23:17:46.974Z,100092.66
2022-09-11T23:20:14.460Z,100086.84
2022-09-11T23:22:42.107Z,100088.81
2022-09-11T23:25:11.188Z,100091.78
2022-09-11T23:27:38.716Z,100082.19
2022-09-11T23:30:06.167Z,100085.00
2022-09-11T23:32:33.776Z,100076.53
2022-09-11T23:35:01.569Z,100088.31
2022-09-11T23:37:29.137Z,100084.38
2022-09-11T23:39:56.629Z,100081.28
2022-09-11T23:42:24.168Z,100076.47
2022-09-11T23:44:51.657Z,100074.19
2022-09-11T23:47:19.118Z,100079.78
2022-09-11T23:49:48.037Z,100074.59
2022-09-11T23:52:15.530Z,100077.53
2022-09-11T23:54:42.986Z,100070.44
2022-09-11T23:57:10.555Z,100072.41
2022-09-11T23:59:38.320Z,100075.34
